createdAt,value
2022-12-22T00:01:21.662Z,8.83
2022-12-22T00:06:42.802Z,8.43
2022-12-22T00:12:04.848Z,9.23
2022-12-22T00:17:42.206Z,10.90
2022-12-22T00:23:03.404Z,10.90
2022-12-22T00:28:33.230Z,11.73
2022-12-22T00:33:56.129Z,10.27
2022-12-22T00:39:17.175Z,11.80
2022-12-22T00:44:38.341Z,11.73
2022-12-22T00:50:08.518Z,11.33
2022-12-22T00:55:37.769Z,11.07
2022-12-22T01:00:58.653Z,10.53
2022-12-22T01:06:21.862Z,11.83
2022-12-22T01:11:43.164Z,11.47
2022-12-22T01:17:06.673Z,12.07
2022-12-22T01:22:30.760Z,11.10
2022-12-22T01:27:52.402Z,11.07
2022-12-22T01:33:18.439Z,10.57
2022-12-22T01:38:42.933Z,10.90
2022-12-22T01:44:04.548Z,10.70
2022-12-22T01:49:30.901Z,12.70
2022-12-22T01:54:53.829Z,11.23
2022-12-22T02:00:14.920Z,11.00
2022-12-22T02:05:38.733Z,10.00
2022-12-22T02:11:14.818Z,10.87
2022-12-22T02:16:45.903Z,12.03
2022-12-22T02:22:24.420Z,11.87
2022-12-22T02:27:51.149Z,12.47
2022-12-22T02:33:12.872Z,11.57
2022-12-22T02:38:44.347Z,11.90
2022-12-22T02:44:29.811Z,12.03
2022-12-22T02:50:02.095Z,11.43
2022-12-22T02:55:25.360Z,11.47
2022-12-22T03:00:52.288Z,11.40
2022-12-22T03:06:24.380Z,11.23
2022-12-22T03:11:49.260Z,11.10
2022-12-22T03:17:18.369Z,10.77
2022-12-22T03:22:46.336Z,11.43
2022-12-22T03:27:51.548Z,11.83
2022-12-22T03:33:04.184Z,11.53
2022-12-22T03:38:08.381Z,12.13
2022-12-22T03:43:34.801Z,11.80
2022-12-22T03:49:29.061Z,11.20
2022-12-22T03:54:37.965Z,11.73
2022-12-22T03:59:50.132Z,12.10
2022-12-22T04:04:58.850Z,11.50
2022-12-22T04:10:21.812Z,12.33
2022-12-22T04:15:40.758Z,11.53
2022-12-22T04:20:50.109Z,12.20
2022-12-22T04:25:58.422Z,11.67
2022-12-22T04:31:14.402Z,10.93
2022-12-22T04:36:24.182Z,11.17
2022-12-22T04:41:31.863Z,11.20
2022-12-22T04:46:37.224Z,11.27
2022-12-22T04:51:46.024Z,10.50
2022-12-22T04:56:50.980Z,10.00
2022-12-22T05:01:56.967Z,9.63
2022-12-22T05:07:13.801Z,8.90
2022-12-22T05:12:36.228Z,9.00
2022-12-22T05:17:44.413Z,8.93
2022-12-22T05:22:56.843Z,9.07
2022-12-22T05:28:04.502Z,10.17
2022-12-22T05:33:09.828Z,9.67
2022-12-22T05:38:17.866Z,10.00
2022-12-22T05:43:24.863Z,9.77
2022-12-22T05:48:37.860Z,10.40
2022-12-22T05:53:45.339Z,10.13
2022-12-22T06:04:13.931Z,11.90
2022-12-22T06:09:32.349Z,11.20
2022-12-22T06:14:44.743Z,9.73
2022-12-22T06:19:59.943Z,10.63
2022-12-22T06:25:05.542Z,12.40
2022-12-22T06:30:18.681Z,8.53
2022-12-22T06:35:22.880Z,9.47
2022-12-22T06:40:31.741Z,9.70
2022-12-22T06:45:35.518Z,10.83
2022-12-22T06:50:44.454Z,11.50
2022-12-22T06:55:56.813Z,10.50
2022-12-22T07:01:02.424Z,18.00
2022-12-22T07:06:08.236Z,9.23
2022-12-22T07:11:25.110Z,8.60
2022-12-22T07:16:33.689Z,9.40
2022-12-22T07:21:38.111Z,9.37
2022-12-22T07:26:43.204Z,11.00
2022-12-22T07:31:47.251Z,9.57
2022-12-22T07:36:51.030Z,9.10
2022-12-22T07:42:13.824Z,9.60
2022-12-22T07:47:17.399Z,10.63
2022-12-22T07:52:21.185Z,12.00
2022-12-22T07:57:26.664Z,11.27
2022-12-22T08:02:36.946Z,11.30
2022-12-22T08:07:42.771Z,11.07
2022-12-22T08:12:50.742Z,10.80
2022-12-22T08:17:54.488Z,10.87
2022-12-22T08:22:58.973Z,10.47
2022-12-22T08:28:04.779Z,11.50
2022-12-22T08:33:10.777Z,11.63
2022-12-22T08:38:15.878Z,10.30
2022-12-22T08:43:22.168Z,10.50
2022-12-22T08:48:25.965Z,12.20
2022-12-22T08:54:03.128Z,11.67
2022-12-22T08:58:57.945Z,11.80
2022-12-22T09:04:01.890Z,11.07
2022-12-22T09:09:07.798Z,11.67
2022-12-22T09:14:14.279Z,11.07
2022-12-22T09:19:18.638Z,11.33
2022-12-22T09:24:22.574Z,10.83
2022-12-22T09:29:28.108Z,9.93
2022-12-22T09:34:32.397Z,10.57
2022-12-22T09:39:36.499Z,10.13
2022-12-22T09:44:45.153Z,10.30
2022-12-22T09:49:49.372Z,9.80
2022-12-22T09:54:56.132Z,9.47
2022-12-22T10:00:08.821Z,13.83
2022-12-22T10:05:28.725Z,15.40
2022-12-22T10:10:33.629Z,15.27
2022-12-22T10:15:43.536Z,11.20
2022-12-22T10:20:49.453Z,10.27
2022-12-22T10:31:35.251Z,9.73
2022-12-22T10:36:40.168Z,9.93
2022-12-22T10:41:46.574Z,8.80
2022-12-22T10:46:53.786Z,11.80
2022-12-22T10:52:10.632Z,11.23
2022-12-22T10:57:29.348Z,9.30
2022-12-22T11:02:38.883Z,8.60
2022-12-22T11:07:45.001Z,8.30
2022-12-22T11:13:10.009Z,7.40
2022-12-22T11:18:31.783Z,7.30
2022-12-22T11:23:44.211Z,6.60
2022-12-22T11:29:33.027Z,7.60
2022-12-22T11:40:18.442Z,7.30
2022-12-22T11:45:48.209Z,7.00
2022-12-22T11:51:00.152Z,6.47
2022-12-22T11:56:21.505Z,8.53
2022-12-22T12:01:39.924Z,6.50
2022-12-22T12:07:12.892Z,6.37
2022-12-22T12:12:24.881Z,5.57
2022-12-22T12:17:44.645Z,5.30
2022-12-22T12:23:01.550Z,5.37
2022-12-22T12:28:21.639Z,4.83
2022-12-22T12:33:40.838Z,6.90
2022-12-22T12:39:09.609Z,6.17
2022-12-22T12:44:30.716Z,5.37
2022-12-22T12:49:55.811Z,5.97
2022-12-22T12:55:33.321Z,6.10
2022-12-22T13:00:51.137Z,5.57
2022-12-22T13:05:59.396Z,6.03
2022-12-22T13:17:41.832Z,6.43
2022-12-22T13:22:47.871Z,6.10
2022-12-22T13:27:53.820Z,5.93
2022-12-22T13:33:02.766Z,6.97
2022-12-22T13:38:07.042Z,6.47
2022-12-22T13:43:16.054Z,6.77
2022-12-22T13:48:29.318Z,6.33
2022-12-22T13:58:58.980Z,7.20
2022-12-22T14:04:08.138Z,7.13
2022-12-22T14:09:20.673Z,6.87
2022-12-22T14:14:27.857Z,6.50
2022-12-22T14:19:36.341Z,6.27
2022-12-22T14:24:51.449Z,7.57
2022-12-22T14:29:55.617Z,7.00
2022-12-22T14:35:00.851Z,6.30
2022-12-22T14:40:04.782Z,6.87
2022-12-22T14:45:16.833Z,7.77
2022-12-22T14:50:24.645Z,7.80
2022-12-22T14:55:31.413Z,6.80
2022-12-22T15:00:39.681Z,6.03
2022-12-22T15:05:47.074Z,6.57
2022-12-22T15:10:51.200Z,6.83
2022-12-22T15:15:55.031Z,6.30
2022-12-22T15:21:01.089Z,5.60
2022-12-22T15:26:05.746Z,6.30
2022-12-22T15:31:16.030Z,6.10
2022-12-22T15:36:22.378Z,6.17
2022-12-22T15:41:27.685Z,6.20
2022-12-22T15:46:32.535Z,4.80
2022-12-22T15:51:37.875Z,4.93
2022-12-22T15:56:41.880Z,4.83
2022-12-22T16:01:46.699Z,4.33
2022-12-22T16:06:55.489Z,6.93
2022-12-22T16:11:59.357Z,5.70
2022-12-22T16:17:04.306Z,5.13
2022-12-22T16:22:10.059Z,6.63
2022-12-22T16:27:14.542Z,6.60
2022-12-22T16:32:24.548Z,6.47
2022-12-22T16:37:30.947Z,6.97
2022-12-22T16:47:59.549Z,6.20
2022-12-22T16:53:07.198Z,8.70
2022-12-22T16:58:13.904Z,6.60
2022-12-22T17:03:22.135Z,6.93
2022-12-22T17:08:30.781Z,6.57
2022-12-22T17:13:35.017Z,6.47
2022-12-22T17:18:38.985Z,8.33
2022-12-22T17:23:47.563Z,8.93
2022-12-22T17:28:52.567Z,10.40
2022-12-22T17:33:56.355Z,9.27
2022-12-22T17:39:02.973Z,7.87
2022-12-22T17:44:07.040Z,7.40
2022-12-22T17:49:10.794Z,10.20
2022-12-22T17:54:23.638Z,6.23
2022-12-22T17:59:27.165Z,5.53
2022-12-22T18:04:30.694Z,5.53
2022-12-22T18:09:35.825Z,9.10
2022-12-22T18:14:39.395Z,7.67
2022-12-22T18:19:43.105Z,6.67
2022-12-22T18:24:48.479Z,8.53
2022-12-22T18:29:52.319Z,8.23
2022-12-22T18:34:56.191Z,8.30
2022-12-22T18:40:02.743Z,7.67
2022-12-22T18:45:07.585Z,7.83
2022-12-22T18:50:18.476Z,7.10
2022-12-22T18:55:26.486Z,9.10
2022-12-22T19:00:32.610Z,11.70
2022-12-22T19:05:38.348Z,8.57
2022-12-22T19:10:48.485Z,10.83
2022-12-22T19:16:01.932Z,8.80
2022-12-22T19:21:06.792Z,6.20
2022-12-22T19:26:23.732Z,6.87
2022-12-22T19:31:31.303Z,7.47
2022-12-22T19:36:35.464Z,7.50
2022-12-22T19:41:57.990Z,10.07
2022-12-22T19:53:50.743Z,8.57
2022-12-22T19:59:37.311Z,7.93
2022-12-22T20:18:43.776Z,9.37
2022-12-22T21:34:26.702Z,9.33
2022-12-22T21:39:50.351Z,9.83
2022-12-22T21:44:58.265Z,12.50
2022-12-22T21:50:05.335Z,11.20
2022-12-22T21:55:10.813Z,10.70
2022-12-22T22:00:16.987Z,11.03
2022-12-22T22:05:28.966Z,10.87
2022-12-22T22:10:34.857Z,10.47
2022-12-22T22:15:39.250Z,10.20
2022-12-22T22:20:47.325Z,9.93
2022-12-22T22:26:02.010Z,9.23
2022-12-22T22:31:12.304Z,9.77
2022-12-22T22:36:17.988Z,9.40
2022-12-22T22:41:23.754Z,8.83
2022-12-22T22:46:27.539Z,9.27
2022-12-22T22:51:32.617Z,9.77
2022-12-22T22:56:39.006Z,9.47
2022-12-22T23:01:42.880Z,9.30
2022-12-22T23:06:48.197Z,8.67
2022-12-22T23:11:53.114Z,8.80
2022-12-22T23:16:58.489Z,9.10
2022-12-22T23:22:03.540Z,8.47
2022-12-22T23:27:07.101Z,8.57
2022-12-22T23:32:27.441Z,8.70
2022-12-22T23:37:32.594Z,8.90
2022-12-22T23:42:36.251Z,8.90
2022-12-22T23:47:39.852Z,8.80
2022-12-22T23:52:49.158Z,7.37
2022-12-22T23:57:56.193Z,8.67
